createdAt,value
2023-05-10T00:02:11.744Z,14.03
2023-05-10T00:04:38.917Z,14.02
2023-05-10T00:07:05.590Z,14.03
2023-05-10T00:09:33.682Z,13.97
2023-05-10T00:12:00.715Z,13.92
2023-05-10T00:14:27.464Z,13.87
2023-05-10T00:16:54.248Z,13.92
2023-05-10T00:19:20.921Z,13.89
2023-05-10T00:21:47.822Z,13.77
2023-05-10T00:24:14.706Z,13.68
2023-05-10T00:26:43.153Z,13.69
2023-05-10T00:29:09.938Z,13.77
2023-05-10T00:31:36.608Z,13.67
2023-05-10T00:34:03.320Z,13.71
2023-05-10T00:36:30.220Z,13.67
2023-05-10T00:38:56.879Z,13.60
2023-05-10T00:41:23.860Z,13.63
2023-05-10T00:43:50.588Z,13.69
2023-05-10T00:46:17.604Z,13.40
2023-05-10T00:48:45.738Z,13.66
2023-05-10T00:51:12.568Z,13.57
2023-05-10T00:53:39.448Z,13.58
2023-05-10T00:56:06.462Z,13.40
2023-05-10T00:58:33.441Z,13.44
2023-05-10T01:01:01.532Z,13.40
2023-05-10T01:03:29.011Z,13.35
2023-05-10T01:05:56.281Z,13.38
2023-05-10T01:08:26.819Z,13.33
2023-05-10T01:10:53.653Z,13.29
2023-05-10T01:13:38.356Z,13.37
2023-05-10T01:16:05.993Z,13.31
2023-05-10T01:18:36.211Z,13.26
2023-05-10T01:21:23.589Z,13.25
2023-05-10T01:23:53.333Z,13.17
2023-05-10T01:26:31.930Z,13.23
2023-05-10T01:29:31.726Z,13.21
2023-05-10T01:32:07.460Z,13.08
2023-05-10T01:34:46.551Z,13.03
2023-05-10T01:37:21.142Z,13.15
2023-05-10T01:40:01.292Z,13.14
2023-05-10T01:42:35.294Z,13.11
2023-05-10T01:45:20.090Z,13.09
2023-05-10T01:48:02.281Z,12.93
2023-05-10T01:50:31.622Z,12.96
2023-05-10T01:53:01.203Z,12.88
2023-05-10T01:55:31.906Z,12.93
2023-05-10T01:58:14.093Z,12.99
2023-05-10T02:00:44.991Z,12.96
2023-05-10T02:03:17.062Z,12.92
2023-05-10T02:05:46.927Z,12.85
2023-05-10T02:08:15.765Z,12.90
2023-05-10T02:10:49.774Z,12.83
2023-05-10T02:13:18.110Z,12.94
2023-05-10T02:15:49.737Z,12.90
2023-05-10T02:18:17.824Z,12.84
2023-05-10T02:20:47.262Z,12.81
2023-05-10T02:23:17.391Z,12.74
2023-05-10T02:25:45.771Z,12.85
2023-05-10T02:28:14.103Z,12.79
2023-05-10T02:30:41.376Z,12.74
2023-05-10T02:33:08.899Z,12.80
2023-05-10T02:35:36.251Z,12.65
2023-05-10T02:38:03.697Z,12.72
2023-05-10T02:40:31.344Z,12.71
2023-05-10T02:43:00.253Z,12.65
2023-05-10T02:45:31.304Z,12.76
2023-05-10T02:47:59.225Z,12.61
2023-05-10T02:50:29.493Z,12.57
2023-05-10T02:53:03.035Z,12.50
2023-05-10T02:55:36.490Z,12.53
2023-05-10T02:58:04.150Z,12.39
2023-05-10T03:00:30.968Z,12.53
2023-05-10T03:03:01.713Z,12.54
2023-05-10T03:05:28.553Z,12.50
2023-05-10T03:07:55.789Z,12.52
2023-05-10T03:10:28.632Z,12.47
2023-05-10T03:13:12.837Z,12.47
2023-05-10T03:16:00.241Z,12.53
2023-05-10T03:18:38.141Z,12.54
2023-05-10T03:21:09.982Z,12.49
2023-05-10T03:23:44.370Z,12.51
2023-05-10T03:26:18.253Z,12.58
2023-05-10T03:28:45.398Z,12.41
2023-05-10T03:31:13.474Z,12.38
2023-05-10T03:33:50.736Z,12.39
2023-05-10T03:36:17.804Z,12.40
2023-05-10T03:38:44.543Z,12.45
2023-05-10T03:41:12.114Z,12.38
2023-05-10T03:43:39.507Z,12.36
2023-05-10T03:46:06.626Z,12.46
2023-05-10T03:48:34.176Z,12.44
2023-05-10T03:51:00.987Z,12.33
2023-05-10T03:53:27.980Z,12.36
2023-05-10T03:55:54.708Z,12.37
2023-05-10T03:58:24.175Z,12.34
2023-05-10T04:00:52.315Z,12.40
2023-05-10T04:03:19.214Z,12.38
2023-05-10T04:05:46.020Z,12.41
2023-05-10T04:08:17.413Z,12.37
2023-05-10T04:10:44.500Z,12.40
2023-05-10T04:13:12.143Z,12.41
2023-05-10T04:15:38.888Z,12.48
2023-05-10T04:18:08.003Z,12.54
2023-05-10T04:20:35.495Z,12.64
2023-05-10T04:23:02.152Z,12.63
2023-05-10T04:25:28.824Z,12.77
2023-05-10T04:27:55.461Z,12.73
2023-05-10T04:30:22.665Z,12.75
2023-05-10T04:32:49.351Z,12.79
2023-05-10T04:35:16.142Z,12.71
2023-05-10T04:37:42.818Z,12.75
2023-05-10T04:40:10.233Z,12.81
2023-05-10T04:42:36.844Z,12.83
2023-05-10T04:45:03.900Z,12.88
2023-05-10T04:47:30.619Z,12.92
2023-05-10T04:49:57.255Z,13.06
2023-05-10T04:52:23.873Z,13.00
2023-05-10T04:54:50.608Z,12.88
2023-05-10T04:57:17.253Z,12.94
2023-05-10T04:59:43.925Z,12.93
2023-05-10T05:02:10.692Z,12.94
2023-05-10T05:04:37.460Z,13.04
2023-05-10T05:07:04.071Z,13.01
2023-05-10T05:09:32.910Z,12.98
2023-05-10T05:11:59.650Z,13.10
2023-05-10T05:14:26.347Z,12.99
2023-05-10T05:16:53.678Z,13.07
2023-05-10T05:19:20.418Z,13.10
2023-05-10T05:21:47.086Z,13.13
2023-05-10T05:24:13.894Z,13.09
2023-05-10T05:26:40.616Z,13.27
2023-05-10T05:29:09.400Z,13.40
2023-05-10T05:31:36.359Z,13.57
2023-05-10T05:34:03.121Z,13.52
2023-05-10T05:36:29.906Z,13.72
2023-05-10T05:38:56.555Z,13.85
2023-05-10T05:41:23.515Z,13.85
2023-05-10T05:43:50.189Z,14.09
2023-05-10T05:46:16.988Z,14.02
2023-05-10T05:48:43.648Z,14.02
2023-05-10T05:51:11.781Z,13.98
2023-05-10T05:53:38.414Z,13.87
2023-05-10T05:56:08.226Z,14.07
2023-05-10T05:58:34.858Z,14.01
2023-05-10T06:01:01.607Z,13.99
2023-05-10T06:03:28.371Z,13.86
2023-05-10T06:05:55.109Z,13.98
2023-05-10T06:08:22.078Z,14.09
2023-05-10T06:10:48.918Z,14.09
2023-05-10T06:13:15.654Z,14.05
2023-05-10T06:15:42.419Z,14.12
2023-05-10T06:18:09.239Z,14.03
2023-05-10T06:20:36.052Z,14.16
2023-05-10T06:23:02.756Z,14.90
2023-05-10T06:25:29.411Z,15.66
2023-05-10T06:27:58.912Z,16.08
2023-05-10T06:30:29.456Z,16.93
2023-05-10T06:32:57.224Z,17.26
2023-05-10T06:35:24.825Z,17.79
2023-05-10T06:37:52.156Z,18.24
2023-05-10T06:40:19.258Z,18.08
2023-05-10T06:42:47.314Z,18.32
2023-05-10T06:45:15.704Z,18.61
2023-05-10T06:47:43.056Z,18.25
2023-05-10T06:50:10.654Z,18.75
2023-05-10T06:52:37.294Z,18.06
2023-05-10T06:55:07.456Z,17.92
2023-05-10T06:57:34.315Z,18.19
2023-05-10T07:00:01.242Z,18.23
2023-05-10T07:02:28.343Z,17.81
2023-05-10T07:04:55.207Z,17.92
2023-05-10T07:07:22.124Z,17.34
2023-05-10T07:09:49.931Z,16.99
2023-05-10T07:12:16.911Z,16.76
2023-05-10T07:14:43.728Z,16.96
2023-05-10T07:17:10.984Z,16.58
2023-05-10T07:19:37.855Z,16.58
2023-05-10T07:22:04.664Z,16.66
2023-05-10T07:24:32.326Z,16.46
2023-05-10T07:26:59.164Z,16.59
2023-05-10T07:29:26.015Z,16.78
2023-05-10T07:31:52.725Z,16.70
2023-05-10T07:34:19.452Z,16.98
2023-05-10T07:36:46.137Z,17.10
2023-05-10T07:39:16.446Z,16.75
2023-05-10T07:41:51.437Z,16.96
2023-05-10T07:44:20.088Z,16.87
2023-05-10T07:46:47.513Z,16.88
2023-05-10T07:49:14.360Z,16.69
2023-05-10T07:51:41.973Z,16.89
2023-05-10T07:54:08.734Z,17.24
2023-05-10T07:56:35.593Z,17.30
2023-05-10T07:59:09.260Z,17.72
2023-05-10T08:01:36.941Z,17.51
2023-05-10T08:04:03.661Z,17.22
2023-05-10T08:06:31.156Z,17.19
2023-05-10T08:08:58.416Z,17.30
2023-05-10T08:11:25.198Z,17.06
2023-05-10T08:13:52.712Z,17.13
2023-05-10T08:16:19.585Z,17.36
2023-05-10T08:18:48.028Z,17.69
2023-05-10T08:21:15.733Z,17.88
2023-05-10T08:23:44.552Z,18.01
2023-05-10T08:26:11.734Z,18.15
2023-05-10T08:28:38.585Z,18.16
2023-05-10T08:31:06.215Z,18.06
2023-05-10T08:33:33.117Z,17.84
2023-05-10T08:35:59.939Z,18.02
2023-05-10T08:38:26.973Z,18.22
2023-05-10T08:40:57.651Z,18.31
2023-05-10T08:43:29.434Z,17.98
2023-05-10T08:45:59.909Z,18.08
2023-05-10T08:48:29.919Z,17.98
2023-05-10T08:51:00.754Z,18.05
2023-05-10T08:53:28.345Z,18.12
2023-05-10T08:55:56.602Z,18.16
2023-05-10T08:58:23.441Z,18.52
2023-05-10T09:00:53.654Z,18.36
2023-05-10T09:03:20.554Z,18.64
2023-05-10T09:05:48.023Z,18.83
2023-05-10T09:08:17.335Z,19.02
2023-05-10T09:10:49.286Z,19.07
2023-05-10T09:13:18.733Z,19.00
2023-05-10T09:15:46.136Z,18.77
2023-05-10T09:18:13.923Z,18.30
2023-05-10T09:20:41.576Z,18.12
2023-05-10T09:23:08.412Z,18.08
2023-05-10T09:25:35.186Z,18.29
2023-05-10T09:28:01.932Z,18.58
2023-05-10T09:30:32.499Z,19.08
2023-05-10T09:33:00.696Z,18.99
2023-05-10T09:35:32.486Z,18.97
2023-05-10T09:38:02.115Z,19.02
2023-05-10T09:40:31.120Z,19.14
2023-05-10T09:43:11.808Z,19.31
2023-05-10T09:45:39.285Z,19.09
2023-05-10T09:48:06.390Z,19.06
2023-05-10T09:50:33.202Z,19.10
2023-05-10T09:53:01.841Z,19.05
2023-05-10T09:55:41.059Z,19.01
2023-05-10T09:58:11.487Z,19.40
2023-05-10T10:00:40.247Z,19.35
2023-05-10T10:03:07.809Z,19.40
2023-05-10T10:05:36.612Z,19.78
2023-05-10T10:08:05.651Z,20.30
2023-05-10T10:10:33.930Z,20.33
2023-05-10T10:13:01.068Z,20.04
2023-05-10T10:15:28.063Z,20.43
2023-05-10T10:17:55.382Z,21.01
2023-05-10T10:20:23.731Z,20.55
2023-05-10T10:22:50.742Z,20.68
2023-05-10T10:25:19.854Z,20.93
2023-05-10T10:27:52.642Z,20.64
2023-05-10T10:30:43.283Z,20.85
2023-05-10T10:33:29.240Z,20.73
2023-05-10T10:35:59.123Z,20.28
2023-05-10T10:38:26.075Z,20.48
2023-05-10T10:41:27.729Z,20.37
2023-05-10T10:44:31.937Z,20.42
2023-05-10T10:47:12.845Z,20.62
2023-05-10T10:49:39.974Z,20.40
2023-05-10T10:52:30.167Z,20.76
2023-05-10T10:55:06.339Z,20.38
2023-05-10T10:58:01.084Z,20.53
2023-05-10T11:00:32.884Z,20.52
2023-05-10T11:03:15.711Z,20.30
2023-05-10T11:05:52.971Z,20.21
2023-05-10T11:08:33.709Z,19.95
2023-05-10T11:11:01.659Z,19.73
2023-05-10T11:13:34.115Z,19.47
2023-05-10T11:16:12.361Z,19.45
2023-05-10T11:18:39.345Z,19.54
2023-05-10T11:21:11.445Z,19.52
2023-05-10T11:23:41.307Z,19.38
2023-05-10T11:26:12.594Z,19.39
2023-05-10T11:28:46.959Z,19.51
2023-05-10T11:31:18.740Z,19.53
2023-05-10T11:33:48.336Z,19.55
2023-05-10T11:36:19.772Z,19.41
2023-05-10T11:38:47.505Z,19.34
2023-05-10T11:41:14.945Z,19.27
2023-05-10T11:43:42.686Z,19.12
2023-05-10T11:46:12.356Z,19.10
2023-05-10T11:48:44.247Z,19.24
2023-05-10T11:51:12.113Z,19.74
2023-05-10T11:53:41.066Z,19.70
2023-05-10T11:56:12.270Z,19.60
2023-05-10T11:58:40.239Z,19.57
2023-05-10T12:01:10.336Z,19.44
2023-05-10T12:03:37.806Z,19.26
2023-05-10T12:06:05.270Z,19.07
2023-05-10T12:08:32.007Z,18.74
2023-05-10T12:11:11.443Z,18.17
2023-05-10T12:13:42.698Z,18.19
2023-05-10T12:16:21.712Z,18.07
2023-05-10T12:18:53.602Z,18.00
2023-05-10T12:21:23.642Z,17.88
2023-05-10T12:23:55.074Z,17.42
2023-05-10T12:26:27.305Z,17.11
2023-05-10T12:28:54.782Z,16.77
2023-05-10T12:31:24.572Z,16.79
2023-05-10T12:33:51.309Z,16.69
2023-05-10T12:36:24.135Z,16.65
2023-05-10T12:38:52.753Z,16.38
2023-05-10T12:41:19.736Z,16.42
2023-05-10T12:43:47.401Z,16.37
2023-05-10T12:46:17.624Z,16.25
2023-05-10T12:48:45.478Z,16.06
2023-05-10T12:51:18.221Z,16.31
2023-05-10T12:53:48.747Z,16.20
2023-05-10T12:56:16.313Z,15.95
2023-05-10T12:58:43.025Z,15.84
2023-05-10T13:01:09.896Z,15.77
2023-05-10T13:03:36.573Z,15.84
2023-05-10T13:06:03.408Z,15.91
2023-05-10T13:08:34.308Z,15.92
2023-05-10T13:11:02.002Z,16.10
2023-05-10T13:13:28.679Z,16.15
2023-05-10T13:15:55.529Z,16.20
2023-05-10T13:18:22.444Z,16.25
2023-05-10T13:20:52.334Z,16.28
2023-05-10T13:23:18.998Z,16.19
2023-05-10T13:25:48.653Z,16.20
2023-05-10T13:28:15.376Z,16.36
2023-05-10T13:30:41.989Z,16.22
2023-05-10T13:33:08.667Z,16.28
2023-05-10T13:35:35.443Z,16.32
2023-05-10T13:38:02.227Z,16.29
2023-05-10T13:40:29.270Z,16.10
2023-05-10T13:42:55.916Z,16.22
2023-05-10T13:45:22.727Z,16.21
2023-05-10T13:47:53.178Z,16.49
2023-05-10T13:50:20.110Z,16.35
2023-05-10T13:52:46.836Z,16.41
2023-05-10T13:55:14.219Z,16.50
2023-05-10T13:57:40.932Z,16.53
2023-05-10T14:00:12.574Z,16.53
2023-05-10T14:02:39.353Z,16.65
2023-05-10T14:05:06.753Z,16.67
2023-05-10T14:07:33.414Z,16.74
2023-05-10T14:10:00.068Z,16.76
2023-05-10T14:12:26.837Z,16.74
2023-05-10T14:14:53.618Z,16.80
2023-05-10T14:17:20.541Z,16.85
2023-05-10T14:19:47.154Z,16.93
2023-05-10T14:22:13.816Z,16.84
2023-05-10T14:24:40.628Z,17.05
2023-05-10T14:27:08.050Z,16.91
2023-05-10T14:29:34.760Z,17.14
2023-05-10T14:32:01.662Z,17.23
2023-05-10T14:34:28.378Z,17.34
2023-05-10T14:36:55.215Z,17.06
2023-05-10T14:39:22.253Z,17.15
2023-05-10T14:41:49.102Z,17.31
2023-05-10T14:44:16.532Z,17.16
2023-05-10T14:46:43.536Z,17.27
2023-05-10T14:49:10.223Z,17.21
2023-05-10T14:51:37.890Z,17.66
2023-05-10T14:54:04.721Z,17.78
2023-05-10T14:56:31.430Z,17.67
2023-05-10T14:58:58.103Z,17.81
2023-05-10T15:01:25.453Z,17.91
2023-05-10T15:03:52.783Z,17.87
2023-05-10T15:06:26.304Z,17.82
2023-05-10T15:08:53.008Z,18.00
2023-05-10T15:11:19.678Z,17.94
2023-05-10T15:13:46.332Z,17.78
2023-05-10T15:16:16.301Z,17.99
2023-05-10T15:18:43.064Z,17.97
2023-05-10T15:21:10.471Z,18.15
2023-05-10T15:23:37.213Z,17.98
2023-05-10T15:26:04.011Z,18.05
2023-05-10T15:28:31.905Z,17.84
2023-05-10T15:30:59.226Z,17.64
2023-05-10T15:33:26.436Z,17.55
2023-05-10T15:35:54.592Z,17.70
2023-05-10T15:38:21.267Z,17.36
2023-05-10T15:40:47.953Z,17.47
2023-05-10T15:43:15.026Z,17.39
2023-05-10T15:45:41.717Z,17.54
2023-05-10T15:48:08.404Z,17.49
2023-05-10T15:50:35.149Z,17.49
2023-05-10T15:53:03.521Z,17.56
2023-05-10T15:55:30.192Z,17.47
2023-05-10T15:57:56.972Z,17.71
2023-05-10T16:00:23.671Z,17.65
2023-05-10T16:02:54.138Z,17.65
2023-05-10T16:05:21.109Z,17.68
2023-05-10T16:07:47.809Z,17.54
2023-05-10T16:10:14.479Z,17.31
2023-05-10T16:12:41.403Z,17.42
2023-05-10T16:15:09.227Z,17.21
2023-05-10T16:17:35.957Z,17.03
2023-05-10T16:20:02.849Z,17.09
2023-05-10T16:22:30.116Z,17.19
2023-05-10T16:24:59.947Z,17.25
2023-05-10T16:27:28.729Z,17.23
2023-05-10T16:29:55.464Z,17.06
2023-05-10T16:32:22.362Z,16.95
2023-05-10T16:34:50.231Z,17.22
2023-05-10T16:37:17.002Z,16.98
2023-05-10T16:39:44.057Z,16.98
2023-05-10T16:42:10.994Z,16.99
2023-05-10T16:44:37.682Z,16.99
2023-05-10T16:47:04.519Z,16.98
2023-05-10T16:49:31.529Z,17.06
2023-05-10T16:51:58.261Z,17.12
2023-05-10T16:54:24.972Z,17.03
2023-05-10T16:56:51.838Z,17.02
2023-05-10T16:59:18.490Z,17.02
2023-05-10T17:01:46.121Z,17.04
2023-05-10T17:04:14.312Z,16.98
2023-05-10T17:06:41.489Z,17.00
2023-05-10T17:09:08.184Z,16.91
2023-05-10T17:11:34.829Z,16.96
2023-05-10T17:14:01.876Z,17.04
2023-05-10T17:16:29.865Z,16.91
2023-05-10T17:18:56.784Z,16.85
2023-05-10T17:21:23.524Z,16.83
2023-05-10T17:23:50.326Z,16.81
2023-05-10T17:26:17.276Z,16.73
2023-05-10T17:28:44.001Z,16.71
2023-05-10T17:31:10.742Z,16.58
2023-05-10T17:33:37.648Z,16.45
2023-05-10T17:36:04.367Z,16.52
2023-05-10T17:38:31.032Z,16.50
2023-05-10T17:40:57.664Z,16.40
2023-05-10T17:43:26.045Z,16.46
2023-05-10T17:45:52.989Z,16.39
2023-05-10T17:48:19.841Z,16.37
2023-05-10T17:50:46.543Z,16.36
2023-05-10T17:53:13.222Z,16.28
2023-05-10T17:55:41.224Z,16.27
2023-05-10T17:58:08.472Z,16.17
2023-05-10T18:00:35.946Z,16.19
2023-05-10T18:03:03.602Z,16.17
2023-05-10T18:05:30.705Z,16.14
2023-05-10T18:07:57.531Z,16.19
2023-05-10T18:10:24.801Z,16.17
2023-05-10T18:12:52.416Z,16.05
2023-05-10T18:15:19.154Z,16.02
2023-05-10T18:17:45.921Z,15.96
2023-05-10T18:20:13.091Z,15.95
2023-05-10T18:22:39.959Z,15.86
2023-05-10T18:25:07.178Z,15.84
2023-05-10T18:27:34.374Z,15.84
2023-05-10T18:30:01.129Z,15.85
2023-05-10T18:32:28.074Z,15.79
2023-05-10T18:34:55.875Z,15.77
2023-05-10T18:37:22.784Z,15.58
2023-05-10T18:39:50.584Z,15.54
2023-05-10T18:42:17.492Z,15.51
2023-05-10T18:44:44.108Z,15.48
2023-05-10T18:47:10.726Z,15.52
2023-05-10T18:49:37.401Z,15.50
2023-05-10T18:52:04.016Z,15.49
2023-05-10T18:54:30.765Z,15.31
2023-05-10T18:56:58.610Z,15.23
2023-05-10T18:59:25.684Z,15.13
2023-05-10T19:01:53.700Z,15.00
2023-05-10T19:04:21.865Z,14.97
2023-05-10T19:06:48.828Z,14.93
2023-05-10T19:09:15.702Z,14.93
2023-05-10T19:11:43.289Z,14.94
2023-05-10T19:14:10.222Z,14.90
2023-05-10T19:16:37.049Z,14.88
2023-05-10T19:19:03.996Z,14.69
2023-05-10T19:21:31.149Z,14.70
2023-05-10T19:23:58.227Z,14.65
2023-05-10T19:26:24.997Z,14.59
2023-05-10T19:28:52.599Z,14.60
2023-05-10T19:31:20.419Z,14.51
2023-05-10T19:33:47.271Z,14.50
2023-05-10T19:36:13.965Z,14.50
2023-05-10T19:38:40.743Z,14.50
2023-05-10T19:41:07.480Z,14.48
2023-05-10T19:43:39.847Z,14.38
2023-05-10T19:46:06.764Z,14.32
2023-05-10T19:48:33.524Z,14.36
2023-05-10T19:51:02.387Z,14.36
2023-05-10T19:53:29.560Z,14.31
2023-05-10T19:55:56.530Z,14.31
2023-05-10T19:58:23.619Z,14.22
2023-05-10T20:00:50.461Z,14.27
2023-05-10T20:03:17.155Z,14.33
2023-05-10T20:05:43.851Z,14.30
2023-05-10T20:08:10.609Z,14.31
2023-05-10T20:10:37.426Z,14.30
2023-05-10T20:13:04.208Z,14.29
2023-05-10T20:15:30.942Z,14.23
2023-05-10T20:17:57.713Z,14.28
2023-05-10T20:20:24.504Z,14.24
2023-05-10T20:22:51.394Z,14.12
2023-05-10T20:25:18.912Z,14.16
2023-05-10T20:27:45.636Z,14.12
2023-05-10T20:30:12.792Z,14.06
2023-05-10T20:32:39.632Z,14.04
2023-05-10T20:35:07.188Z,14.03
2023-05-10T20:37:34.171Z,14.04
2023-05-10T20:40:01.126Z,14.01
2023-05-10T20:42:27.807Z,13.96
2023-05-10T20:44:56.681Z,13.85
2023-05-10T20:47:23.521Z,13.84
2023-05-10T20:49:50.281Z,13.82
2023-05-10T20:52:17.322Z,13.84
2023-05-10T20:54:43.964Z,13.79
2023-05-10T20:57:12.825Z,13.72
2023-05-10T20:59:39.582Z,13.72
2023-05-10T21:02:06.806Z,13.63
2023-05-10T21:04:33.462Z,13.72
2023-05-10T21:07:00.220Z,13.65
2023-05-10T21:09:26.924Z,13.65
2023-05-10T21:11:53.652Z,13.49
2023-05-10T21:14:20.813Z,13.48
2023-05-10T21:16:47.512Z,13.41
2023-05-10T21:19:14.120Z,13.41
2023-05-10T21:21:40.790Z,13.45
2023-05-10T21:24:07.770Z,13.37
2023-05-10T21:26:34.759Z,13.27
2023-05-10T21:29:01.649Z,13.29
2023-05-10T21:31:28.664Z,13.30
2023-05-10T21:33:55.441Z,13.29
2023-05-10T21:36:22.198Z,13.29
2023-05-10T21:38:50.476Z,13.33
2023-05-10T21:41:17.812Z,13.27
2023-05-10T21:43:44.552Z,13.23
2023-05-10T21:46:13.391Z,13.21
2023-05-10T21:48:40.191Z,13.18
2023-05-10T21:51:07.138Z,13.14
2023-05-10T21:53:33.771Z,13.14
2023-05-10T21:56:00.605Z,13.17
2023-05-10T21:58:27.673Z,13.14
2023-05-10T22:00:54.646Z,13.01
2023-05-10T22:03:21.863Z,13.03
2023-05-10T22:05:48.549Z,12.90
2023-05-10T22:08:15.201Z,12.89
2023-05-10T22:10:41.898Z,12.94
2023-05-10T22:13:08.637Z,12.80
2023-05-10T22:15:36.668Z,12.86
2023-05-10T22:18:03.601Z,12.81
2023-05-10T22:20:30.240Z,12.84
2023-05-10T22:22:56.922Z,12.85
2023-05-10T22:25:23.616Z,12.91
2023-05-10T22:27:50.341Z,12.83
2023-05-10T22:30:17.457Z,12.86
2023-05-10T22:32:44.487Z,12.85
2023-05-10T22:35:11.185Z,12.81
2023-05-10T22:37:37.870Z,12.84
2023-05-10T22:40:05.242Z,12.80
2023-05-10T22:42:32.069Z,12.80
2023-05-10T22:44:58.923Z,12.83
2023-05-10T22:47:25.929Z,12.83
2023-05-10T22:49:53.169Z,12.76
2023-05-10T22:52:19.868Z,12.65
2023-05-10T22:54:46.594Z,12.70
2023-05-10T22:57:13.330Z,12.65
2023-05-10T22:59:40.024Z,12.67
2023-05-10T23:02:06.768Z,12.69
2023-05-10T23:04:35.854Z,12.74
2023-05-10T23:07:02.651Z,12.74
2023-05-10T23:09:29.308Z,12.76
2023-05-10T23:11:56.159Z,12.72
2023-05-10T23:14:23.190Z,12.70
2023-05-10T23:16:55.168Z,12.73
2023-05-10T23:19:21.963Z,12.67
2023-05-10T23:21:48.998Z,12.66
2023-05-10T23:24:15.792Z,12.72
2023-05-10T23:26:45.169Z,12.69
2023-05-10T23:29:12.333Z,12.69
2023-05-10T23:31:45.236Z,12.71
2023-05-10T23:34:12.495Z,12.84
2023-05-10T23:36:39.358Z,12.64
2023-05-10T23:39:06.626Z,12.57
2023-05-10T23:41:33.264Z,12.56
2023-05-10T23:44:01.432Z,12.47
2023-05-10T23:46:28.803Z,12.37
2023-05-10T23:48:55.383Z,12.40
2023-05-10T23:51:24.424Z,12.46
2023-05-10T23:53:51.049Z,12.48
2023-05-10T23:56:17.999Z,12.47
2023-05-10T23:58:46.235Z,12.49
